sensor_id;sensor_type;location;lat;lon;timestamp;pressure;altitude;pressure_sealevel;temperature;humidity
7760;BME280;3924;48.830;9.262;2023-04-07T00:00:52;98625.34;;;7.64;65.81
7760;BME280;3924;48.830;9.262;2023-04-07T00:03:20;98625.34;;;7.64;65.94
7760;BME280;3924;48.830;9.262;2023-04-07T00:05:54;98616.97;;;7.66;66.29
7760;BME280;3924;48.830;9.262;2023-04-07T00:08:22;98623.97;;;7.67;66.32
7760;BME280;3924;48.830;9.262;2023-04-07T00:10:50;98617.50;;;7.68;66.61
7760;BME280;3924;48.830;9.262;2023-04-07T00:13:17;98612.09;;;7.68;66.44
7760;BME280;3924;48.830;9.262;2023-04-07T00:15:47;98609.94;;;7.65;66.89
7760;BME280;3924;48.830;9.262;2023-04-07T00:18:15;98607.81;;;7.62;66.74
7760;BME280;3924;48.830;9.262;2023-04-07T00:20:46;98606.72;;;7.63;67.03
7760;BME280;3924;48.830;9.262;2023-04-07T00:23:16;98600.25;;;7.64;67.24
7760;BME280;3924;48.830;9.262;2023-04-07T00:25:43;98599.97;;;7.65;67.38
7760;BME280;3924;48.830;9.262;2023-04-07T00:28:10;98595.38;;;7.66;67.53
7760;BME280;3924;48.830;9.262;2023-04-07T00:30:36;98591.06;;;7.65;67.61
7760;BME280;3924;48.830;9.262;2023-04-07T00:33:03;98592.16;;;7.64;67.87
7760;BME280;3924;48.830;9.262;2023-04-07T00:35:34;98589.72;;;7.62;68.15
7760;BME280;3924;48.830;9.262;2023-04-07T00:38:01;98592.69;;;7.61;68.06
7760;BME280;3924;48.830;9.262;2023-04-07T00:40:28;98582.97;;;7.55;68.18
7760;BME280;3924;48.830;9.262;2023-04-07T00:42:55;98585.66;;;7.55;68.20
7760;BME280;3924;48.830;9.262;2023-04-07T00:45:21;98581.13;;;7.55;68.48
7760;BME280;3924;48.830;9.262;2023-04-07T00:47:48;98573.28;;;7.54;68.46
7760;BME280;3924;48.830;9.262;2023-04-07T00:50:14;98567.34;;;7.52;68.86
7760;BME280;3924;48.830;9.262;2023-04-07T00:52:41;98568.44;;;7.56;68.84
7760;BME280;3924;48.830;9.262;2023-04-07T00:55:07;98564.91;;;7.60;68.97
7760;BME280;3924;48.830;9.262;2023-04-07T00:57:34;98555.72;;;7.66;69.00
7760;BME280;3924;48.830;9.262;2023-04-07T01:00:00;98560.81;;;7.68;69.07
7760;BME280;3924;48.830;9.262;2023-04-07T01:10:46;98551.69;;;7.54;69.57
7760;BME280;3924;48.830;9.262;2023-04-07T01:13:24;98547.91;;;7.55;69.76
7760;BME280;3924;48.830;9.262;2023-04-07T01:15:54;98546.84;;;7.56;69.65
7760;BME280;3924;48.830;9.262;2023-04-07T01:18:32;98543.59;;;7.54;69.91
7760;BME280;3924;48.830;9.262;2023-04-07T01:21:06;98541.19;;;7.52;69.98
7760;BME280;3924;48.830;9.262;2023-04-07T01:23:51;98536.06;;;7.51;70.03
7760;BME280;3924;48.830;9.262;2023-04-07T01:26:31;98538.22;;;7.49;70.10
7760;BME280;3924;48.830;9.262;2023-04-07T01:29:36;98527.44;;;7.49;70.42
7760;BME280;3924;48.830;9.262;2023-04-07T01:32:10;98523.94;;;7.43;70.37
7760;BME280;3924;48.830;9.262;2023-04-07T01:34:39;98529.63;;;7.42;70.74
7760;BME280;3924;48.830;9.262;2023-04-07T01:37:08;98521.50;;;7.47;70.76
7760;BME280;3924;48.830;9.262;2023-04-07T01:39:40;98521.50;;;7.47;70.87
7760;BME280;3924;48.830;9.262;2023-04-07T01:42:09;98519.06;;;7.45;70.84
7760;BME280;3924;48.830;9.262;2023-04-07T01:44:38;98520.44;;;7.43;71.20
7760;BME280;3924;48.830;9.262;2023-04-07T01:47:18;98512.88;;;7.39;71.32
7760;BME280;3924;48.830;9.262;2023-04-07T01:49:49;98511.81;;;7.35;71.24
7760;BME280;3924;48.830;9.262;2023-04-07T01:52:18;98512.63;;;7.36;71.29
7760;BME280;3924;48.830;9.262;2023-04-07T01:54:48;98508.56;;;7.33;71.31
7760;BME280;3924;48.830;9.262;2023-04-07T01:57:16;98503.72;;;7.35;71.59
7760;BME280;3924;48.830;9.262;2023-04-07T01:59:56;98506.97;;;7.37;71.79
7760;BME280;3924;48.830;9.262;2023-04-07T02:02:35;98504.25;;;7.37;71.85
7760;BME280;3924;48.830;9.262;2023-04-07T02:05:12;98496.41;;;7.41;71.62
7760;BME280;3924;48.830;9.262;2023-04-07T02:07:52;98497.22;;;7.47;71.94
7760;BME280;3924;48.830;9.262;2023-04-07T02:10:23;98499.38;;;7.50;71.80
7760;BME280;3924;48.830;9.262;2023-04-07T02:12:53;98495.59;;;7.51;72.03
7760;BME280;3924;48.830;9.262;2023-04-07T02:15:22;98498.31;;;7.51;71.74
7760;BME280;3924;48.830;9.262;2023-04-07T02:17:52;98498.81;;;7.53;72.17
7760;BME280;3924;48.830;9.262;2023-04-07T02:20:20;98498.81;;;7.53;72.23
7760;BME280;3924;48.830;9.262;2023-04-07T02:22:48;98494.50;;;7.52;72.08
7760;BME280;3924;48.830;9.262;2023-04-07T02:25:30;98492.91;;;7.51;72.16
7760;BME280;3924;48.830;9.262;2023-04-07T02:27:59;98493.44;;;7.48;72.43
7760;BME280;3924;48.830;9.262;2023-04-07T02:30:27;98487.50;;;7.46;72.19
7760;BME280;3924;48.830;9.262;2023-04-07T02:32:55;98482.69;;;7.43;72.59
7760;BME280;3924;48.830;9.262;2023-04-07T02:35:23;98484.03;;;7.40;72.47
7760;BME280;3924;48.830;9.262;2023-04-07T02:37:56;98483.25;;;7.34;72.71
7760;BME280;3924;48.830;9.262;2023-04-07T02:40:24;98476.78;;;7.35;72.85
7760;BME280;3924;48.830;9.262;2023-04-07T02:42:52;98475.13;;;7.39;72.77
7760;BME280;3924;48.830;9.262;2023-04-07T02:45:20;98472.69;;;7.43;72.58
7760;BME280;3924;48.830;9.262;2023-04-07T02:48:11;98471.06;;;7.47;72.57
7760;BME280;3924;48.830;9.262;2023-04-07T02:50:55;98473.47;;;7.54;72.83
7760;BME280;3924;48.830;9.262;2023-04-07T02:53:23;98478.84;;;7.54;72.67
7760;BME280;3924;48.830;9.262;2023-04-07T02:55:56;98467.81;;;7.50;72.63
7760;BME280;3924;48.830;9.262;2023-04-07T02:58:35;98468.63;;;7.51;72.84
7760;BME280;3924;48.830;9.262;2023-04-07T03:01:03;98461.63;;;7.50;73.05
7760;BME280;3924;48.830;9.262;2023-04-07T03:03:32;98465.94;;;7.46;72.92
7760;BME280;3924;48.830;9.262;2023-04-07T03:06:04;98465.69;;;7.42;73.14
7760;BME280;3924;48.830;9.262;2023-04-07T03:08:35;98465.94;;;7.40;72.94
7760;BME280;3924;48.830;9.262;2023-04-07T03:11:03;98456.00;;;7.36;73.30
7760;BME280;3924;48.830;9.262;2023-04-07T03:13:33;98449.25;;;7.33;73.45
7760;BME280;3924;48.830;9.262;2023-04-07T03:16:00;98444.41;;;7.35;73.54
7760;BME280;3924;48.830;9.262;2023-04-07T03:18:29;98439.00;;;7.35;73.46
7760;BME280;3924;48.830;9.262;2023-04-07T03:20:57;98441.97;;;7.34;73.14
7760;BME280;3924;48.830;9.262;2023-04-07T03:23:26;98439.81;;;7.36;73.62
7760;BME280;3924;48.830;9.262;2023-04-07T03:25:55;98442.25;;;7.37;73.35
7760;BME280;3924;48.830;9.262;2023-04-07T03:28:23;98442.47;;;7.41;73.53
7760;BME280;3924;48.830;9.262;2023-04-07T03:30:49;98441.16;;;7.44;73.61
7760;BME280;3924;48.830;9.262;2023-04-07T03:33:15;98439.78;;;7.46;73.69
7760;BME280;3924;48.830;9.262;2023-04-07T03:35:42;98439.53;;;7.43;73.65
7760;BME280;3924;48.830;9.262;2023-04-07T03:38:08;98436.28;;;7.40;73.72
7760;BME280;3924;48.830;9.262;2023-04-07T03:40:35;98437.94;;;7.36;73.83
7760;BME280;3924;48.830;9.262;2023-04-07T03:43:02;98437.13;;;7.36;74.08
7760;BME280;3924;48.830;9.262;2023-04-07T03:45:28;98436.03;;;7.37;73.93
7760;BME280;3924;48.830;9.262;2023-04-07T03:47:54;98434.66;;;7.39;73.92
7760;BME280;3924;48.830;9.262;2023-04-07T03:50:21;98428.19;;;7.40;74.10
7760;BME280;3924;48.830;9.262;2023-04-07T03:52:48;98436.28;;;7.40;74.07
7760;BME280;3924;48.830;9.262;2023-04-07T03:55:14;98436.28;;;7.40;74.10
7760;BME280;3924;48.830;9.262;2023-04-07T03:57:40;98431.97;;;7.45;74.32
7760;BME280;3924;48.830;9.262;2023-04-07T04:00:07;98425.78;;;7.44;74.14
7760;BME280;3924;48.830;9.262;2023-04-07T04:02:34;98424.97;;;7.44;74.25
7760;BME280;3924;48.830;9.262;2023-04-07T04:05:01;98421.75;;;7.42;74.39
7760;BME280;3924;48.830;9.262;2023-04-07T04:07:27;98422.00;;;7.40;74.45
7760;BME280;3924;48.830;9.262;2023-04-07T04:09:54;98423.88;;;7.39;74.58
7760;BME280;3924;48.830;9.262;2023-04-07T04:12:20;98425.50;;;7.40;74.37
7760;BME280;3924;48.830;9.262;2023-04-07T04:14:47;98430.38;;;7.38;74.55
7760;BME280;3924;48.830;9.262;2023-04-07T04:17:13;98415.00;;;7.34;74.61
7760;BME280;3924;48.830;9.262;2023-04-07T04:19:40;98414.47;;;7.32;74.68
7760;BME280;3924;48.830;9.262;2023-04-07T04:22:07;98413.16;;;7.29;74.88
7760;BME280;3924;48.830;9.262;2023-04-07T04:24:33;98426.06;;;7.27;74.79
7760;BME280;3924;48.830;9.262;2023-04-07T04:27:00;98418.53;;;7.29;74.92
7760;BME280;3924;48.830;9.262;2023-04-07T04:29:28;98414.22;;;7.28;75.14
7760;BME280;3924;48.830;9.262;2023-04-07T04:31:58;98405.34;;;7.28;75.20
7760;BME280;3924;48.830;9.262;2023-04-07T04:34:27;98406.69;;;7.25;75.07
7760;BME280;3924;48.830;9.262;2023-04-07T04:36:55;98410.47;;;7.24;75.32
7760;BME280;3924;48.830;9.262;2023-04-07T04:39:23;98418.53;;;7.24;75.43
7760;BME280;3924;48.830;9.262;2023-04-07T04:41:50;98414.78;;;7.20;75.31
7760;BME280;3924;48.830;9.262;2023-04-07T04:44:21;98411.03;;;7.21;75.73
7760;BME280;3924;48.830;9.262;2023-04-07T04:46:49;98419.63;;;7.23;75.86
7760;BME280;3924;48.830;9.262;2023-04-07T04:49:17;98417.22;;;7.17;75.63
7760;BME280;3924;48.830;9.262;2023-04-07T04:51:45;98418.03;;;7.12;75.80
7760;BME280;3924;48.830;9.262;2023-04-07T04:54:13;98419.41;;;7.09;75.79
7760;BME280;3924;48.830;9.262;2023-04-07T04:56:57;98420.19;;;7.10;76.08
7760;BME280;3924;48.830;9.262;2023-04-07T04:59:30;98413.19;;;7.09;76.06
7760;BME280;3924;48.830;9.262;2023-04-07T05:02:00;98415.63;;;7.10;76.10
7760;BME280;3924;48.830;9.262;2023-04-07T05:04:28;98413.19;;;7.09;75.94
7760;BME280;3924;48.830;9.262;2023-04-07T05:06:59;98408.34;;;7.11;76.26
7760;BME280;3924;48.830;9.262;2023-04-07T05:09:36;98411.59;;;7.08;76.19
7760;BME280;3924;48.830;9.262;2023-04-07T05:12:03;98410.78;;;7.07;76.14
7760;BME280;3924;48.830;9.262;2023-04-07T05:14:31;98419.41;;;7.09;76.05
7760;BME280;3924;48.830;9.262;2023-04-07T05:16:59;98418.03;;;7.12;76.17
7760;BME280;3924;48.830;9.262;2023-04-07T05:19:27;98420.72;;;7.12;76.35
7760;BME280;3924;48.830;9.262;2023-04-07T05:21:55;98419.63;;;7.13;76.59
7760;BME280;3924;48.830;9.262;2023-04-07T05:24:25;98419.63;;;7.13;76.37
7760;BME280;3924;48.830;9.262;2023-04-07T05:26:53;98415.06;;;7.13;76.72
7760;BME280;3924;48.830;9.262;2023-04-07T05:29:19;98419.63;;;7.13;76.61
7760;BME280;3924;48.830;9.262;2023-04-07T05:31:46;98421.28;;;7.14;76.58
7760;BME280;3924;48.830;9.262;2023-04-07T05:34:12;98425.03;;;7.18;76.47
7760;BME280;3924;48.830;9.262;2023-04-07T05:36:39;98419.09;;;7.21;76.46
7760;BME280;3924;48.830;9.262;2023-04-07T05:39:05;98425.03;;;7.23;76.61
7760;BME280;3924;48.830;9.262;2023-04-07T05:41:32;98420.44;;;7.24;76.76
7760;BME280;3924;48.830;9.262;2023-04-07T05:43:58;98425.28;;;7.27;76.89
7760;BME280;3924;48.830;9.262;2023-04-07T05:46:25;98423.38;;;7.27;76.62
7760;BME280;3924;48.830;9.262;2023-04-07T05:48:52;98418.25;;;7.26;76.87
7760;BME280;3924;48.830;9.262;2023-04-07T05:51:18;98420.16;;;7.25;76.59
7760;BME280;3924;48.830;9.262;2023-04-07T05:53:45;98420.44;;;7.24;76.77
7760;BME280;3924;48.830;9.262;2023-04-07T05:56:11;98416.94;;;7.23;76.88
7760;BME280;3924;48.830;9.262;2023-04-07T05:58:38;98423.94;;;7.24;76.85
7760;BME280;3924;48.830;9.262;2023-04-07T06:01:04;98429.06;;;7.26;76.88
7760;BME280;3924;48.830;9.262;2023-04-07T06:03:31;98425.03;;;7.28;76.98
7760;BME280;3924;48.830;9.262;2023-04-07T06:05:58;98430.13;;;7.30;76.95
7760;BME280;3924;48.830;9.262;2023-04-07T06:08:24;98429.56;;;7.33;76.87
7760;BME280;3924;48.830;9.262;2023-04-07T06:10:51;98424.97;;;7.33;77.09
7760;BME280;3924;48.830;9.262;2023-04-07T06:13:17;98433.88;;;7.34;76.85
7760;BME280;3924;48.830;9.262;2023-04-07T06:15:44;98435.75;;;7.33;76.84
7760;BME280;3924;48.830;9.262;2023-04-07T06:18:10;98432.81;;;7.35;77.05
7760;BME280;3924;48.830;9.262;2023-04-07T06:20:37;98430.34;;;7.44;76.99
7760;BME280;3924;48.830;9.262;2023-04-07T06:23:03;98432.50;;;7.47;76.98
7760;BME280;3924;48.830;9.262;2023-04-07T06:25:30;98427.66;;;7.44;76.90
7760;BME280;3924;48.830;9.262;2023-04-07T06:28:01;98424.44;;;7.42;76.96
7760;BME280;3924;48.830;9.262;2023-04-07T06:30:30;98427.94;;;7.42;76.98
7760;BME280;3924;48.830;9.262;2023-04-07T06:32:58;98437.06;;;7.46;77.09
7760;BME280;3924;48.830;9.262;2023-04-07T06:35:25;98437.59;;;7.53;77.25
7760;BME280;3924;48.830;9.262;2023-04-07T06:37:53;98420.59;;;7.58;76.91
7760;BME280;3924;48.830;9.262;2023-04-07T06:40:22;98436.25;;;7.56;76.80
7760;BME280;3924;48.830;9.262;2023-04-07T06:42:55;98431.41;;;7.53;76.98
7760;BME280;3924;48.830;9.262;2023-04-07T06:45:23;98429.25;;;7.50;76.85
7760;BME280;3924;48.830;9.262;2023-04-07T06:47:54;98426.00;;;7.58;76.91
7760;BME280;3924;48.830;9.262;2023-04-07T06:50:22;98425.13;;;7.67;77.02
7760;BME280;3924;48.830;9.262;2023-04-07T06:52:49;98428.06;;;7.76;76.99
7760;BME280;3924;48.830;9.262;2023-04-07T06:55:17;98426.41;;;7.80;76.78
7760;BME280;3924;48.830;9.262;2023-04-07T06:57:44;98424.81;;;7.79;76.78
7760;BME280;3924;48.830;9.262;2023-04-07T07:00:12;98423.19;;;7.78;76.91
7760;BME280;3924;48.830;9.262;2023-04-07T07:02:44;98421.03;;;7.80;76.89
7760;BME280;3924;48.830;9.262;2023-04-07T07:05:15;98425.88;;;7.83;76.88
7760;BME280;3924;48.830;9.262;2023-04-07T07:07:42;98424.72;;;7.94;76.64
7760;BME280;3924;48.830;9.262;2023-04-07T07:10:10;98425.47;;;8.05;76.81
7760;BME280;3924;48.830;9.262;2023-04-07T07:12:38;98422.19;;;8.13;76.42
7760;BME280;3924;48.830;9.262;2023-04-07T07:15:09;98418.09;;;8.16;76.29
7760;BME280;3924;48.830;9.262;2023-04-07T07:17:44;98423.50;;;8.21;76.36
7760;BME280;3924;48.830;9.262;2023-04-07T07:20:17;98419.16;;;8.25;76.24
7760;BME280;3924;48.830;9.262;2023-04-07T07:22:49;98422.34;;;8.37;76.23
7760;BME280;3924;48.830;9.262;2023-04-07T07:25:17;98418.09;;;8.60;75.88
7760;BME280;3924;48.830;9.262;2023-04-07T07:27:45;98423.28;;;9.15;75.03
7760;BME280;3924;48.830;9.262;2023-04-07T07:30:13;98428.16;;;9.60;74.40
7760;BME280;3924;48.830;9.262;2023-04-07T07:32:51;98418.00;;;9.95;73.75
7760;BME280;3924;48.830;9.262;2023-04-07T07:35:42;98424.41;;;10.23;73.31
7760;BME280;3924;48.830;9.262;2023-04-07T07:38:10;98413.63;;;10.37;73.11
7760;BME280;3924;48.830;9.262;2023-04-07T07:43:30;98420.16;;;10.68;72.51
7760;BME280;3924;48.830;9.262;2023-04-07T07:46:07;98423.28;;;10.76;72.06
7760;BME280;3924;48.830;9.262;2023-04-07T07:48:36;98423.00;;;10.77;72.23
7760;BME280;3924;48.830;9.262;2023-04-07T07:51:07;98423.94;;;10.86;72.11
7760;BME280;3924;48.830;9.262;2023-04-07T07:53:35;98428.44;;;10.91;71.83
7760;BME280;3924;48.830;9.262;2023-04-07T07:56:09;98430.84;;;10.79;71.90
7760;BME280;3924;48.830;9.262;2023-04-07T07:59:02;98427.06;;;10.93;71.67
7760;BME280;3924;48.830;9.262;2023-04-07T08:01:44;98422.09;;;11.14;71.08
7760;BME280;3924;48.830;9.262;2023-04-07T08:04:13;98419.09;;;11.30;70.75
7760;BME280;3924;48.830;9.262;2023-04-07T08:06:41;98427.31;;;11.52;70.44
7760;BME280;3924;48.830;9.262;2023-04-07T08:09:08;98414.69;;;11.61;69.84
7760;BME280;3924;48.830;9.262;2023-04-07T08:11:35;98421.47;;;11.72;69.93
7760;BME280;3924;48.830;9.262;2023-04-07T08:14:01;98425.41;;;11.80;69.70
7760;BME280;3924;48.830;9.262;2023-04-07T08:16:28;98428.25;;;11.75;69.39
7760;BME280;3924;48.830;9.262;2023-04-07T08:18:54;98422.59;;;11.71;69.37
7760;BME280;3924;48.830;9.262;2023-04-07T08:21:21;98421.50;;;11.59;69.45
7760;BME280;3924;48.830;9.262;2023-04-07T08:23:47;98432.97;;;11.83;69.14
7760;BME280;3924;48.830;9.262;2023-04-07T08:26:14;98424.31;;;12.09;68.20
7760;BME280;3924;48.830;9.262;2023-04-07T08:28:41;98427.09;;;12.17;67.90
7760;BME280;3924;48.830;9.262;2023-04-07T08:31:09;98426.06;;;12.13;67.80
7760;BME280;3924;48.830;9.262;2023-04-07T08:33:35;98427.03;;;11.95;68.02
7760;BME280;3924;48.830;9.262;2023-04-07T08:36:02;98432.88;;;11.74;68.19
7760;BME280;3924;48.830;9.262;2023-04-07T08:38:28;98424.31;;;11.40;68.62
7760;BME280;3924;48.830;9.262;2023-04-07T08:41:07;98435.97;;;11.13;69.08
7760;BME280;3924;48.830;9.262;2023-04-07T08:43:34;98442.91;;;10.86;69.28
7760;BME280;3924;48.830;9.262;2023-04-07T08:46:01;98432.59;;;10.69;69.66
7760;BME280;3924;48.830;9.262;2023-04-07T08:48:29;98434.19;;;10.57;69.69
7760;BME280;3924;48.830;9.262;2023-04-07T08:51:06;98447.16;;;10.60;69.54
7760;BME280;3924;48.830;9.262;2023-04-07T08:53:40;98441.66;;;10.65;69.54
7760;BME280;3924;48.830;9.262;2023-04-07T08:56:13;98444.44;;;10.60;69.28
7760;BME280;3924;48.830;9.262;2023-04-07T08:58:40;98456.16;;;10.55;69.36
7760;BME280;3924;48.830;9.262;2023-04-07T09:01:08;98446.41;;;10.54;69.28
7760;BME280;3924;48.830;9.262;2023-04-07T09:03:34;98448.88;;;10.69;68.95
7760;BME280;3924;48.830;9.262;2023-04-07T09:06:01;98448.72;;;10.80;68.69
7760;BME280;3924;48.830;9.262;2023-04-07T09:08:28;98451.56;;;10.88;68.32
7760;BME280;3924;48.830;9.262;2023-04-07T09:10:56;98446.78;;;10.99;68.12
7760;BME280;3924;48.830;9.262;2023-04-07T09:13:27;98454.81;;;11.04;68.00
7760;BME280;3924;48.830;9.262;2023-04-07T09:15:54;98454.59;;;11.01;68.03
7760;BME280;3924;48.830;9.262;2023-04-07T09:18:22;98451.19;;;10.95;67.96
7760;BME280;3924;48.830;9.262;2023-04-07T09:21:04;98452.59;;;10.92;67.94
7760;BME280;3924;48.830;9.262;2023-04-07T09:23:40;98453.81;;;11.00;67.96
7760;BME280;3924;48.830;9.262;2023-04-07T09:26:27;98448.41;;;11.14;67.57
7760;BME280;3924;48.830;9.262;2023-04-07T09:29:04;98453.94;;;11.22;67.32
7760;BME280;3924;48.830;9.262;2023-04-07T09:31:53;98451.84;;;11.19;67.50
7760;BME280;3924;48.830;9.262;2023-04-07T09:34:27;98454.41;;;11.11;67.39
7760;BME280;3924;48.830;9.262;2023-04-07T09:37:02;98458.13;;;11.01;67.40
7760;BME280;3924;48.830;9.262;2023-04-07T09:39:33;98458.22;;;10.96;67.54
7760;BME280;3924;48.830;9.262;2023-04-07T09:45:26;98460.00;;;10.87;67.64
7760;BME280;3924;48.830;9.262;2023-04-07T09:48:20;98460.81;;;10.87;67.61
7760;BME280;3924;48.830;9.262;2023-04-07T09:50:48;98457.78;;;10.89;67.54
7760;BME280;3924;48.830;9.262;2023-04-07T09:53:39;98459.66;;;11.07;67.18
7760;BME280;3924;48.830;9.262;2023-04-07T09:56:11;98460.69;;;11.39;66.54
7760;BME280;3924;48.830;9.262;2023-04-07T09:58:39;98462.03;;;11.55;66.07
7760;BME280;3924;48.830;9.262;2023-04-07T10:01:27;98453.00;;;11.73;65.66
7760;BME280;3924;48.830;9.262;2023-04-07T10:04:06;98460.34;;;11.87;65.42
7760;BME280;3924;48.830;9.262;2023-04-07T10:06:35;98458.63;;;12.04;65.29
7760;BME280;3924;48.830;9.262;2023-04-07T10:09:02;98453.25;;;12.13;65.06
7760;BME280;3924;48.830;9.262;2023-04-07T10:11:29;98452.75;;;12.11;64.98
7760;BME280;3924;48.830;9.262;2023-04-07T10:13:55;98458.81;;;12.08;65.14
7760;BME280;3924;48.830;9.262;2023-04-07T10:16:22;98456.31;;;11.98;65.16
7760;BME280;3924;48.830;9.262;2023-04-07T10:18:50;98448.56;;;11.91;65.31
7760;BME280;3924;48.830;9.262;2023-04-07T10:21:17;98451.19;;;11.83;65.58
7760;BME280;3924;48.830;9.262;2023-04-07T10:24:14;98448.47;;;11.83;65.33
7760;BME280;3924;48.830;9.262;2023-04-07T10:26:50;98452.41;;;11.90;65.41
7760;BME280;3924;48.830;9.262;2023-04-07T10:29:18;98451.56;;;12.03;64.83
7760;BME280;3924;48.830;9.262;2023-04-07T10:31:46;98445.00;;;12.18;64.72
7760;BME280;3924;48.830;9.262;2023-04-07T10:34:13;98444.28;;;12.26;64.66
7760;BME280;3924;48.830;9.262;2023-04-07T10:37:11;98447.66;;;12.68;63.77
7760;BME280;3924;48.830;9.262;2023-04-07T10:39:39;98441.03;;;13.05;63.16
7760;BME280;3924;48.830;9.262;2023-04-07T10:42:06;98443.47;;;13.15;63.06
7760;BME280;3924;48.830;9.262;2023-04-07T10:44:53;98448.59;;;13.17;62.77
7760;BME280;3924;48.830;9.262;2023-04-07T10:47:19;98450.22;;;13.18;62.80
7760;BME280;3924;48.830;9.262;2023-04-07T10:50:19;98441.59;;;13.47;62.35
7760;BME280;3924;48.830;9.262;2023-04-07T10:53:05;98440.72;;;13.38;62.37
7760;BME280;3924;48.830;9.262;2023-04-07T11:03:24;98438.53;;;13.49;61.71
7760;BME280;3924;48.830;9.262;2023-04-07T11:05:51;98437.25;;;13.46;61.84
7760;BME280;3924;48.830;9.262;2023-04-07T11:08:40;98441.50;;;13.69;61.34
7760;BME280;3924;48.830;9.262;2023-04-07T11:11:19;98442.50;;;13.74;61.06
7760;BME280;3924;48.830;9.262;2023-04-07T11:17:21;98442.28;;;13.30;61.75
7760;BME280;3924;48.830;9.262;2023-04-07T11:20:00;98444.56;;;13.06;61.97
7760;BME280;3924;48.830;9.262;2023-04-07T11:22:37;98437.50;;;13.05;62.08
7760;BME280;3924;48.830;9.262;2023-04-07T11:25:19;98441.03;;;13.05;62.01
7760;BME280;3924;48.830;9.262;2023-04-07T11:27:49;98446.63;;;13.09;61.86
7760;BME280;3924;48.830;9.262;2023-04-07T11:30:21;98441.19;;;13.09;61.70
7760;BME280;3924;48.830;9.262;2023-04-07T11:32:49;98439.34;;;13.49;60.84
7760;BME280;3924;48.830;9.262;2023-04-07T11:35:23;98441.22;;;13.80;60.27
7760;BME280;3924;48.830;9.262;2023-04-07T11:37:59;98446.69;;;13.88;59.91
7760;BME280;3924;48.830;9.262;2023-04-07T11:40:41;98444.34;;;13.64;60.19
7760;BME280;3924;48.830;9.262;2023-04-07T11:43:31;98437.25;;;13.46;60.47
7760;BME280;3924;48.830;9.262;2023-04-07T11:46:17;98441.38;;;13.35;60.61
7760;BME280;3924;48.830;9.262;2023-04-07T11:49:11;98449.81;;;13.25;60.89
7760;BME280;3924;48.830;9.262;2023-04-07T11:52:23;98443.97;;;13.18;60.97
7760;BME280;3924;48.830;9.262;2023-04-07T11:54:54;98449.75;;;12.94;61.04
7760;BME280;3924;48.830;9.262;2023-04-07T11:57:36;98451.81;;;12.66;61.60
7760;BME280;3924;48.830;9.262;2023-04-07T12:00:11;98455.00;;;12.45;61.94
7760;BME280;3924;48.830;9.262;2023-04-07T12:02:43;98452.63;;;12.30;62.21
7760;BME280;3924;48.830;9.262;2023-04-07T12:05:20;98461.31;;;12.18;62.32
7760;BME280;3924;48.830;9.262;2023-04-07T12:07:54;98458.81;;;12.08;62.50
7760;BME280;3924;48.830;9.262;2023-04-07T12:10:22;98459.50;;;12.00;62.33
7760;BME280;3924;48.830;9.262;2023-04-07T12:12:49;98458.44;;;12.01;62.45
7760;BME280;3924;48.830;9.262;2023-04-07T12:15:16;98456.22;;;12.03;62.54
7760;BME280;3924;48.830;9.262;2023-04-07T12:17:44;98462.75;;;12.02;62.55
7760;BME280;3924;48.830;9.262;2023-04-07T12:20:15;98463.97;;;11.96;62.51
7760;BME280;3924;48.830;9.262;2023-04-07T12:22:41;98469.00;;;11.89;62.79
7760;BME280;3924;48.830;9.262;2023-04-07T12:25:08;98470.28;;;11.77;62.90
7760;BME280;3924;48.830;9.262;2023-04-07T12:27:35;98472.59;;;11.70;63.06
7760;BME280;3924;48.830;9.262;2023-04-07T12:30:10;98475.22;;;11.62;63.37
7760;BME280;3924;48.830;9.262;2023-04-07T12:32:37;98470.97;;;11.56;63.43
7760;BME280;3924;48.830;9.262;2023-04-07T12:35:04;98479.53;;;11.49;63.67
7760;BME280;3924;48.830;9.262;2023-04-07T12:37:31;98476.28;;;11.33;63.82
7760;BME280;3924;48.830;9.262;2023-04-07T12:39:58;98480.59;;;11.20;64.28
7760;BME280;3924;48.830;9.262;2023-04-07T12:42:25;98475.31;;;11.10;64.80
7760;BME280;3924;48.830;9.262;2023-04-07T12:44:52;98482.97;;;11.08;64.82
7760;BME280;3924;48.830;9.262;2023-04-07T12:47:18;98484.78;;;11.13;64.92
7760;BME280;3924;48.830;9.262;2023-04-07T12:49:45;98488.81;;;11.15;65.06
7760;BME280;3924;48.830;9.262;2023-04-07T12:52:15;98484.91;;;11.21;65.14
7760;BME280;3924;48.830;9.262;2023-04-07T12:54:42;98486.13;;;11.29;65.32
7760;BME280;3924;48.830;9.262;2023-04-07T12:57:09;98485.50;;;11.32;65.37
7760;BME280;3924;48.830;9.262;2023-04-07T12:59:36;98482.00;;;11.32;65.46
7760;BME280;3924;48.830;9.262;2023-04-07T13:02:03;98474.97;;;11.31;65.60
7760;BME280;3924;48.830;9.262;2023-04-07T13:04:30;98477.81;;;11.39;65.71
7760;BME280;3924;48.830;9.262;2023-04-07T13:06:57;98480.63;;;11.48;65.69
7760;BME280;3924;48.830;9.262;2023-04-07T13:09:23;98478.31;;;11.55;65.51
7760;BME280;3924;48.830;9.262;2023-04-07T13:11:50;98483.34;;;11.62;65.65
7760;BME280;3924;48.830;9.262;2023-04-07T13:14:16;98476.41;;;11.69;65.58
7760;BME280;3924;48.830;9.262;2023-04-07T13:16:43;98487.00;;;11.85;65.44
7760;BME280;3924;48.830;9.262;2023-04-07T13:19:10;98478.06;;;11.84;65.41
7760;BME280;3924;48.830;9.262;2023-04-07T13:21:36;98476.13;;;11.85;65.54
7760;BME280;3924;48.830;9.262;2023-04-07T13:24:06;98481.47;;;11.90;65.52
7760;BME280;3924;48.830;9.262;2023-04-07T13:26:33;98480.84;;;11.93;65.48
7760;BME280;3924;48.830;9.262;2023-04-07T13:28:59;98474.94;;;11.91;65.70
7760;BME280;3924;48.830;9.262;2023-04-07T13:31:26;98475.81;;;11.86;65.70
7760;BME280;3924;48.830;9.262;2023-04-07T13:33:53;98485.47;;;11.92;65.77
7760;BME280;3924;48.830;9.262;2023-04-07T13:36:20;98479.25;;;11.92;65.65
7760;BME280;3924;48.830;9.262;2023-04-07T13:38:48;98476.53;;;11.92;65.81
7760;BME280;3924;48.830;9.262;2023-04-07T13:41:15;98479.56;;;11.90;65.79
7760;BME280;3924;48.830;9.262;2023-04-07T13:43:41;98474.63;;;11.92;65.72
7760;BME280;3924;48.830;9.262;2023-04-07T13:46:12;98481.88;;;11.97;65.62
7760;BME280;3924;48.830;9.262;2023-04-07T13:48:54;98473.41;;;11.98;65.63
7760;BME280;3924;48.830;9.262;2023-04-07T13:51:20;98474.13;;;12.04;65.61
7760;BME280;3924;48.830;9.262;2023-04-07T13:53:47;98468.06;;;12.07;65.36
7760;BME280;3924;48.830;9.262;2023-04-07T13:56:14;98470.78;;;12.07;65.40
7760;BME280;3924;48.830;9.262;2023-04-07T13:58:40;98474.91;;;12.04;65.45
7760;BME280;3924;48.830;9.262;2023-04-07T14:01:06;98473.00;;;12.05;65.29
7760;BME280;3924;48.830;9.262;2023-04-07T14:03:33;98462.53;;;12.12;65.14
7760;BME280;3924;48.830;9.262;2023-04-07T14:06:01;98469.34;;;12.23;64.96
7760;BME280;3924;48.830;9.262;2023-04-07T14:08:27;98460.16;;;12.33;64.66
7760;BME280;3924;48.830;9.262;2023-04-07T14:10:54;98470.03;;;12.43;64.40